KBPT/BPT METAR and TAF weather

Enter ICAO airport designator
Station Type Date Time Source
KBPT METAR 2022/06/26 07:53 UTC NOAA

KBPT 260753Z 23004KT 10SM CLR 24/23 A3002 RMK AO2 SLP167 T02440233


Station Type Date Time Source
KBPT Decoded METAR 2022/06/26 07:53 UTC NOAA

SOUTHEAST TEXAS RGNL AIRPORT, TX, United States (KBPT) 29-95N 094-08W 5M
Jun 26, 2022 - 03:53 AM EDT / 2022.06.26 0753 UTC
Wind: from the SW (230 degrees) at 5 MPH (4 KT):0
Visibility: 10 mile(s):0
Sky conditions: clear
Temperature: 75.9 F (24.4 C)
Dew Point: 73.9 F (23.3 C)
Relative Humidity: 93%
Pressure (altimeter): 30.02 in. Hg (1016 hPa)
ob: KBPT 260753Z 23004KT 10SM CLR 24/23 A3002 RMK AO2 SLP167 T02440233
cycle: 8

Station Type Date Time Source
KBPT TAF 2022/06/26 06:22 UTC NOAA

TAF KBPT 260520Z 2606/2706 VRB05KT P6SM FEW250
FM261500 28007KT P6SM SCT250
TEMPO 2620/2624 -TSRA FEW030 BKN045CB

Example: see airport list